sensor_id;sensor_type;location;lat;lon;timestamp;temperature;humidity
10558;DHT22;5327;47.238;-2.304;2023-03-14T00:00:58;40.00;99.90
10558;DHT22;5327;47.238;-2.304;2023-03-14T00:03:24;39.60;99.90
10558;DHT22;5327;47.238;-2.304;2023-03-14T00:05:49;39.80;99.90
10558;DHT22;5327;47.238;-2.304;2023-03-14T00:08:15;39.70;99.90
10558;DHT22;5327;47.238;-2.304;2023-03-14T00:10:41;39.30;99.90
10558;DHT22;5327;47.238;-2.304;2023-03-14T00:13:07;39.00;99.90
10558;DHT22;5327;47.238;-2.304;2023-03-14T00:15:34;38.80;99.90
10558;DHT22;5327;47.238;-2.304;2023-03-14T00:18:00;38.70;99.90
10558;DHT22;5327;47.238;-2.304;2023-03-14T00:20:25;38.70;99.90
10558;DHT22;5327;47.238;-2.304;2023-03-14T00:22:51;38.40;99.90
10558;DHT22;5327;47.238;-2.304;2023-03-14T00:25:17;38.40;99.90
10558;DHT22;5327;47.238;-2.304;2023-03-14T00:27:43;38.30;99.90
10558;DHT22;5327;47.238;-2.304;2023-03-14T00:30:09;38.40;99.90
10558;DHT22;5327;47.238;-2.304;2023-03-14T00:32:35;38.40;99.90
10558;DHT22;5327;47.238;-2.304;2023-03-14T00:35:01;38.40;99.90
10558;DHT22;5327;47.238;-2.304;2023-03-14T00:37:27;38.10;99.90
10558;DHT22;5327;47.238;-2.304;2023-03-14T00:39:53;38.30;99.90
10558;DHT22;5327;47.238;-2.304;2023-03-14T00:42:18;38.30;99.90
10558;DHT22;5327;47.238;-2.304;2023-03-14T00:44:44;38.10;99.90
10558;DHT22;5327;47.238;-2.304;2023-03-14T00:47:10;38.10;99.90
10558;DHT22;5327;47.238;-2.304;2023-03-14T00:52:01;38.10;99.90
10558;DHT22;5327;47.238;-2.304;2023-03-14T00:54:27;37.70;99.90
10558;DHT22;5327;47.238;-2.304;2023-03-14T00:56:53;37.60;99.90
10558;DHT22;5327;47.238;-2.304;2023-03-14T00:59:18;37.60;99.90
10558;DHT22;5327;47.238;-2.304;2023-03-14T01:01:44;37.50;99.90
10558;DHT22;5327;47.238;-2.304;2023-03-14T01:04:10;37.40;99.90
10558;DHT22;5327;47.238;-2.304;2023-03-14T01:06:36;37.30;99.90
10558;DHT22;5327;47.238;-2.304;2023-03-14T01:09:02;37.70;99.90
10558;DHT22;5327;47.238;-2.304;2023-03-14T01:11:31;37.60;99.90
10558;DHT22;5327;47.238;-2.304;2023-03-14T01:13:57;37.70;99.90
10558;DHT22;5327;47.238;-2.304;2023-03-14T01:16:25;37.50;99.90
10558;DHT22;5327;47.238;-2.304;2023-03-14T01:18:50;37.80;99.90
10558;DHT22;5327;47.238;-2.304;2023-03-14T01:21:26;37.80;99.90
10558;DHT22;5327;47.238;-2.304;2023-03-14T01:23:54;37.60;99.90
10558;DHT22;5327;47.238;-2.304;2023-03-14T01:26:21;37.80;99.90
10558;DHT22;5327;47.238;-2.304;2023-03-14T01:28:49;37.80;99.90
10558;DHT22;5327;47.238;-2.304;2023-03-14T01:31:16;37.60;99.90
10558;DHT22;5327;47.238;-2.304;2023-03-14T01:33:42;37.50;99.90
10558;DHT22;5327;47.238;-2.304;2023-03-14T01:36:08;37.40;99.90
10558;DHT22;5327;47.238;-2.304;2023-03-14T01:38:36;37.30;99.90
10558;DHT22;5327;47.238;-2.304;2023-03-14T01:41:02;37.30;99.90
10558;DHT22;5327;47.238;-2.304;2023-03-14T01:43:29;37.40;99.90
10558;DHT22;5327;47.238;-2.304;2023-03-14T01:48:38;37.20;99.90
10558;DHT22;5327;47.238;-2.304;2023-03-14T01:51:07;37.40;99.90
10558;DHT22;5327;47.238;-2.304;2023-03-14T01:53:35;37.30;99.90
10558;DHT22;5327;47.238;-2.304;2023-03-14T01:56:02;37.30;99.90
10558;DHT22;5327;47.238;-2.304;2023-03-14T01:58:30;37.00;99.90
10558;DHT22;5327;47.238;-2.304;2023-03-14T02:00:58;37.20;99.90
10558;DHT22;5327;47.238;-2.304;2023-03-14T02:03:26;37.00;99.90
10558;DHT22;5327;47.238;-2.304;2023-03-14T02:05:54;37.10;99.90
10558;DHT22;5327;47.238;-2.304;2023-03-14T02:08:22;36.90;99.90
10558;DHT22;5327;47.238;-2.304;2023-03-14T02:10:50;36.80;99.90
10558;DHT22;5327;47.238;-2.304;2023-03-14T02:13:17;37.10;99.90
10558;DHT22;5327;47.238;-2.304;2023-03-14T02:15:44;36.90;99.90
10558;DHT22;5327;47.238;-2.304;2023-03-14T02:18:10;37.10;99.90
10558;DHT22;5327;47.238;-2.304;2023-03-14T02:21:00;37.10;99.90
10558;DHT22;5327;47.238;-2.304;2023-03-14T02:23:39;36.80;99.90
10558;DHT22;5327;47.238;-2.304;2023-03-14T02:26:15;37.00;99.90
10558;DHT22;5327;47.238;-2.304;2023-03-14T02:28:46;36.70;99.90
10558;DHT22;5327;47.238;-2.304;2023-03-14T02:31:12;41.20;99.90
10558;DHT22;5327;47.238;-2.304;2023-03-14T02:33:38;36.70;99.90
10558;DHT22;5327;47.238;-2.304;2023-03-14T02:36:07;36.70;99.90
10558;DHT22;5327;47.238;-2.304;2023-03-14T02:38:45;36.70;99.90
10558;DHT22;5327;47.238;-2.304;2023-03-14T02:41:12;36.60;99.90
10558;DHT22;5327;47.238;-2.304;2023-03-14T02:43:38;36.80;99.90
10558;DHT22;5327;47.238;-2.304;2023-03-14T02:46:05;36.80;99.90
10558;DHT22;5327;47.238;-2.304;2023-03-14T02:48:46;36.60;99.90
10558;DHT22;5327;47.238;-2.304;2023-03-14T02:51:13;36.80;99.90
10558;DHT22;5327;47.238;-2.304;2023-03-14T02:53:40;36.80;99.90
10558;DHT22;5327;47.238;-2.304;2023-03-14T02:56:07;36.80;99.90
10558;DHT22;5327;47.238;-2.304;2023-03-14T02:58:34;36.60;99.90
10558;DHT22;5327;47.238;-2.304;2023-03-14T03:01:00;36.60;99.90
10558;DHT22;5327;47.238;-2.304;2023-03-14T03:03:25;36.70;99.90
10558;DHT22;5327;47.238;-2.304;2023-03-14T03:05:53;36.60;99.90
10558;DHT22;5327;47.238;-2.304;2023-03-14T03:08:21;36.70;99.90
10558;DHT22;5327;47.238;-2.304;2023-03-14T03:10:47;36.50;99.90
10558;DHT22;5327;47.238;-2.304;2023-03-14T03:13:13;36.70;99.90
10558;DHT22;5327;47.238;-2.304;2023-03-14T03:15:39;36.60;99.90
10558;DHT22;5327;47.238;-2.304;2023-03-14T03:18:06;36.70;99.90
10558;DHT22;5327;47.238;-2.304;2023-03-14T03:20:31;36.60;99.90
10558;DHT22;5327;47.238;-2.304;2023-03-14T03:22:58;36.60;99.90
10558;DHT22;5327;47.238;-2.304;2023-03-14T03:25:24;36.50;99.90
10558;DHT22;5327;47.238;-2.304;2023-03-14T03:27:50;36.40;99.90
10558;DHT22;5327;47.238;-2.304;2023-03-14T03:30:15;36.60;99.90
10558;DHT22;5327;47.238;-2.304;2023-03-14T03:32:41;36.80;99.90
10558;DHT22;5327;47.238;-2.304;2023-03-14T03:35:07;36.60;99.90
10558;DHT22;5327;47.238;-2.304;2023-03-14T03:37:34;36.60;99.90
10558;DHT22;5327;47.238;-2.304;2023-03-14T03:39:59;36.80;99.90
10558;DHT22;5327;47.238;-2.304;2023-03-14T03:42:28;36.80;99.90
10558;DHT22;5327;47.238;-2.304;2023-03-14T03:44:53;36.50;99.90
10558;DHT22;5327;47.238;-2.304;2023-03-14T03:47:19;36.60;99.90
10558;DHT22;5327;47.238;-2.304;2023-03-14T03:49:45;36.70;99.90
10558;DHT22;5327;47.238;-2.304;2023-03-14T03:52:10;36.70;99.90
10558;DHT22;5327;47.238;-2.304;2023-03-14T03:54:36;36.70;99.90
10558;DHT22;5327;47.238;-2.304;2023-03-14T03:57:02;36.30;99.90
10558;DHT22;5327;47.238;-2.304;2023-03-14T03:59:27;36.30;99.90
10558;DHT22;5327;47.238;-2.304;2023-03-14T04:01:53;36.30;99.90
10558;DHT22;5327;47.238;-2.304;2023-03-14T04:04:19;36.20;99.90
10558;DHT22;5327;47.238;-2.304;2023-03-14T04:06:44;36.20;99.90
10558;DHT22;5327;47.238;-2.304;2023-03-14T04:09:11;36.30;99.90
10558;DHT22;5327;47.238;-2.304;2023-03-14T04:11:37;36.20;99.90
10558;DHT22;5327;47.238;-2.304;2023-03-14T04:14:03;36.30;99.90
10558;DHT22;5327;47.238;-2.304;2023-03-14T04:16:28;36.30;99.90
10558;DHT22;5327;47.238;-2.304;2023-03-14T04:18:57;36.10;99.90
10558;DHT22;5327;47.238;-2.304;2023-03-14T04:21:22;36.00;99.90
10558;DHT22;5327;47.238;-2.304;2023-03-14T04:23:48;36.00;99.90
10558;DHT22;5327;47.238;-2.304;2023-03-14T04:26:14;36.00;99.90
10558;DHT22;5327;47.238;-2.304;2023-03-14T04:28:39;36.10;99.90
10558;DHT22;5327;47.238;-2.304;2023-03-14T04:31:10;36.00;99.90
10558;DHT22;5327;47.238;-2.304;2023-03-14T04:33:36;35.80;99.90
10558;DHT22;5327;47.238;-2.304;2023-03-14T04:36:03;36.00;99.90
10558;DHT22;5327;47.238;-2.304;2023-03-14T04:38:28;35.90;99.90
10558;DHT22;5327;47.238;-2.304;2023-03-14T04:40:54;35.90;99.90
10558;DHT22;5327;47.238;-2.304;2023-03-14T04:43:20;35.70;99.90
10558;DHT22;5327;47.238;-2.304;2023-03-14T04:45:45;35.70;99.90
10558;DHT22;5327;47.238;-2.304;2023-03-14T04:48:11;35.70;99.90
10558;DHT22;5327;47.238;-2.304;2023-03-14T04:50:38;35.70;99.90
10558;DHT22;5327;47.238;-2.304;2023-03-14T04:53:03;35.70;99.90
10558;DHT22;5327;47.238;-2.304;2023-03-14T04:55:29;35.70;99.90
10558;DHT22;5327;47.238;-2.304;2023-03-14T04:57:57;35.70;20.50
10558;DHT22;5327;47.238;-2.304;2023-03-14T05:00:23;35.70;19.80
10558;DHT22;5327;47.238;-2.304;2023-03-14T05:02:49;35.80;11.00
10558;DHT22;5327;47.238;-2.304;2023-03-14T05:05:14;35.80;1.00
10558;DHT22;5327;47.238;-2.304;2023-03-14T05:07:40;35.90;1.00
10558;DHT22;5327;47.238;-2.304;2023-03-14T05:10:06;35.80;1.00
10558;DHT22;5327;47.238;-2.304;2023-03-14T05:12:32;35.80;1.00
10558;DHT22;5327;47.238;-2.304;2023-03-14T05:14:57;35.80;1.00
10558;DHT22;5327;47.238;-2.304;2023-03-14T05:17:23;35.60;1.00
10558;DHT22;5327;47.238;-2.304;2023-03-14T05:19:49;35.40;1.00
10558;DHT22;5327;47.238;-2.304;2023-03-14T05:22:14;35.40;1.00
10558;DHT22;5327;47.238;-2.304;2023-03-14T05:24:40;35.60;1.00
10558;DHT22;5327;47.238;-2.304;2023-03-14T05:27:06;35.50;90.60
10558;DHT22;5327;47.238;-2.304;2023-03-14T05:29:31;35.70;99.90
10558;DHT22;5327;47.238;-2.304;2023-03-14T05:31:57;35.60;99.90
10558;DHT22;5327;47.238;-2.304;2023-03-14T05:34:23;35.50;47.60
10558;DHT22;5327;47.238;-2.304;2023-03-14T05:36:48;35.40;99.90
10558;DHT22;5327;47.238;-2.304;2023-03-14T05:39:14;35.50;99.90
10558;DHT22;5327;47.238;-2.304;2023-03-14T05:41:40;35.60;99.90
10558;DHT22;5327;47.238;-2.304;2023-03-14T05:44:05;35.60;99.90
10558;DHT22;5327;47.238;-2.304;2023-03-14T05:46:31;35.50;1.00
10558;DHT22;5327;47.238;-2.304;2023-03-14T05:48:58;35.60;1.00
10558;DHT22;5327;47.238;-2.304;2023-03-14T05:51:23;35.60;1.00
10558;DHT22;5327;47.238;-2.304;2023-03-14T05:53:49;35.40;1.00
10558;DHT22;5327;47.238;-2.304;2023-03-14T05:56:15;35.50;1.00
10558;DHT22;5327;47.238;-2.304;2023-03-14T05:58:40;35.50;1.00
10558;DHT22;5327;47.238;-2.304;2023-03-14T06:01:07;35.40;1.00
10558;DHT22;5327;47.238;-2.304;2023-03-14T06:03:34;35.40;1.00
10558;DHT22;5327;47.238;-2.304;2023-03-14T06:05:59;36.50;1.00
10558;DHT22;5327;47.238;-2.304;2023-03-14T06:08:25;35.40;1.00
10558;DHT22;5327;47.238;-2.304;2023-03-14T06:10:52;35.50;1.00
10558;DHT22;5327;47.238;-2.304;2023-03-14T06:13:18;35.40;1.00
10558;DHT22;5327;47.238;-2.304;2023-03-14T06:15:44;35.40;1.00
10558;DHT22;5327;47.238;-2.304;2023-03-14T06:18:10;35.40;99.90
10558;DHT22;5327;47.238;-2.304;2023-03-14T06:20:36;35.30;99.90
10558;DHT22;5327;47.238;-2.304;2023-03-14T06:23:05;35.50;99.90
10558;DHT22;5327;47.238;-2.304;2023-03-14T06:25:32;35.70;99.90
10558;DHT22;5327;47.238;-2.304;2023-03-14T06:27:57;35.60;1.00
10558;DHT22;5327;47.238;-2.304;2023-03-14T06:30:23;35.60;1.00
10558;DHT22;5327;47.238;-2.304;2023-03-14T06:32:48;35.60;1.00
10558;DHT22;5327;47.238;-2.304;2023-03-14T06:35:14;35.80;1.00
10558;DHT22;5327;47.238;-2.304;2023-03-14T06:37:40;35.70;1.00
10558;DHT22;5327;47.238;-2.304;2023-03-14T06:40:06;35.60;1.00
10558;DHT22;5327;47.238;-2.304;2023-03-14T06:42:33;35.70;1.00
10558;DHT22;5327;47.238;-2.304;2023-03-14T06:44:58;35.60;1.00
10558;DHT22;5327;47.238;-2.304;2023-03-14T06:47:24;35.80;7.00
10558;DHT22;5327;47.238;-2.304;2023-03-14T06:49:49;35.80;1.00
10558;DHT22;5327;47.238;-2.304;2023-03-14T06:52:15;35.90;47.40
10558;DHT22;5327;47.238;-2.304;2023-03-14T06:54:41;35.80;1.00
10558;DHT22;5327;47.238;-2.304;2023-03-14T06:57:06;35.80;1.00
10558;DHT22;5327;47.238;-2.304;2023-03-14T06:59:32;35.80;1.00
10558;DHT22;5327;47.238;-2.304;2023-03-14T07:01:58;35.80;1.00
10558;DHT22;5327;47.238;-2.304;2023-03-14T07:04:23;35.50;99.90
10558;DHT22;5327;47.238;-2.304;2023-03-14T07:06:49;36.00;1.00
10558;DHT22;5327;47.238;-2.304;2023-03-14T07:09:15;36.20;99.90
10558;DHT22;5327;47.238;-2.304;2023-03-14T07:11:42;36.10;99.90
10558;DHT22;5327;47.238;-2.304;2023-03-14T07:14:08;36.20;1.00
10558;DHT22;5327;47.238;-2.304;2023-03-14T07:16:34;36.30;1.00
10558;DHT22;5327;47.238;-2.304;2023-03-14T07:19:00;36.40;1.00
10558;DHT22;5327;47.238;-2.304;2023-03-14T07:21:27;36.40;99.90
10558;DHT22;5327;47.238;-2.304;2023-03-14T07:23:52;36.50;99.90
10558;DHT22;5327;47.238;-2.304;2023-03-14T07:26:18;36.60;1.00
10558;DHT22;5327;47.238;-2.304;2023-03-14T07:28:44;36.90;1.00
10558;DHT22;5327;47.238;-2.304;2023-03-14T07:31:09;36.70;99.90
10558;DHT22;5327;47.238;-2.304;2023-03-14T07:33:35;36.80;1.00
10558;DHT22;5327;47.238;-2.304;2023-03-14T07:36:01;37.00;1.00
10558;DHT22;5327;47.238;-2.304;2023-03-14T07:38:27;37.20;1.00
10558;DHT22;5327;47.238;-2.304;2023-03-14T07:41:04;37.10;1.00
10558;DHT22;5327;47.238;-2.304;2023-03-14T07:43:30;37.30;99.90
10558;DHT22;5327;47.238;-2.304;2023-03-14T07:45:56;37.50;99.90
10558;DHT22;5327;47.238;-2.304;2023-03-14T07:48:22;38.00;99.90
10558;DHT22;5327;47.238;-2.304;2023-03-14T07:50:51;37.70;99.90
10558;DHT22;5327;47.238;-2.304;2023-03-14T07:53:17;37.30;1.00
10558;DHT22;5327;47.238;-2.304;2023-03-14T07:55:44;38.10;39.50
10558;DHT22;5327;47.238;-2.304;2023-03-14T07:58:10;39.40;99.90
10558;DHT22;5327;47.238;-2.304;2023-03-14T08:00:35;38.60;99.90
10558;DHT22;5327;47.238;-2.304;2023-03-14T08:03:01;38.20;99.90
10558;DHT22;5327;47.238;-2.304;2023-03-14T08:05:27;38.00;99.90
10558;DHT22;5327;47.238;-2.304;2023-03-14T08:07:52;38.10;19.30
10558;DHT22;5327;47.238;-2.304;2023-03-14T08:10:18;38.80;1.00
10558;DHT22;5327;47.238;-2.304;2023-03-14T08:12:57;38.40;1.00
10558;DHT22;5327;47.238;-2.304;2023-03-14T08:15:24;39.00;1.00
10558;DHT22;5327;47.238;-2.304;2023-03-14T08:17:50;38.60;99.90
10558;DHT22;5327;47.238;-2.304;2023-03-14T08:20:21;38.40;99.90
10558;DHT22;5327;47.238;-2.304;2023-03-14T08:22:47;38.10;99.90
10558;DHT22;5327;47.238;-2.304;2023-03-14T08:25:13;37.80;1.00
10558;DHT22;5327;47.238;-2.304;2023-03-14T08:27:38;37.60;53.90
10558;DHT22;5327;47.238;-2.304;2023-03-14T08:30:06;37.40;99.90
10558;DHT22;5327;47.238;-2.304;2023-03-14T08:32:32;37.40;1.00
10558;DHT22;5327;47.238;-2.304;2023-03-14T08:34:57;37.30;99.90
10558;DHT22;5327;47.238;-2.304;2023-03-14T08:37:23;37.60;1.00
10558;DHT22;5327;47.238;-2.304;2023-03-14T08:39:50;38.40;1.00
10558;DHT22;5327;47.238;-2.304;2023-03-14T08:42:16;38.80;99.90
10558;DHT22;5327;47.238;-2.304;2023-03-14T08:44:42;39.00;1.00
10558;DHT22;5327;47.238;-2.304;2023-03-14T08:47:08;39.00;99.90
10558;DHT22;5327;47.238;-2.304;2023-03-14T08:49:33;39.00;99.90
10558;DHT22;5327;47.238;-2.304;2023-03-14T08:52:02;39.00;70.50
10558;DHT22;5327;47.238;-2.304;2023-03-14T08:54:28;39.00;1.00
10558;DHT22;5327;47.238;-2.304;2023-03-14T08:56:54;38.90;99.90
10558;DHT22;5327;47.238;-2.304;2023-03-14T08:59:20;39.20;99.90
10558;DHT22;5327;47.238;-2.304;2023-03-14T09:01:45;39.00;1.00
10558;DHT22;5327;47.238;-2.304;2023-03-14T09:04:11;38.90;1.00
10558;DHT22;5327;47.238;-2.304;2023-03-14T09:06:37;38.80;1.00
10558;DHT22;5327;47.238;-2.304;2023-03-14T09:09:02;38.80;1.00
10558;DHT22;5327;47.238;-2.304;2023-03-14T09:11:28;38.90;1.00
10558;DHT22;5327;47.238;-2.304;2023-03-14T09:13:54;39.80;1.00
10558;DHT22;5327;47.238;-2.304;2023-03-14T09:16:20;44.60;99.90
10558;DHT22;5327;47.238;-2.304;2023-03-14T09:18:45;49.60;1.00
10558;DHT22;5327;47.238;-2.304;2023-03-14T09:21:11;52.80;99.90
10558;DHT22;5327;47.238;-2.304;2023-03-14T09:23:37;49.40;1.00
10558;DHT22;5327;47.238;-2.304;2023-03-14T09:26:04;49.20;99.90
10558;DHT22;5327;47.238;-2.304;2023-03-14T09:28:30;50.60;99.90
10558;DHT22;5327;47.238;-2.304;2023-03-14T09:30:55;49.90;99.90
10558;DHT22;5327;47.238;-2.304;2023-03-14T09:33:21;51.50;99.90
10558;DHT22;5327;47.238;-2.304;2023-03-14T09:35:47;53.20;99.90
10558;DHT22;5327;47.238;-2.304;2023-03-14T09:38:13;54.00;99.90
10558;DHT22;5327;47.238;-2.304;2023-03-14T09:40:38;54.90;99.90
10558;DHT22;5327;47.238;-2.304;2023-03-14T09:43:05;55.00;99.90
10558;DHT22;5327;47.238;-2.304;2023-03-14T09:45:36;55.90;99.90
10558;DHT22;5327;47.238;-2.304;2023-03-14T09:48:04;55.60;99.90
10558;DHT22;5327;47.238;-2.304;2023-03-14T09:50:46;56.00;99.70
10558;DHT22;5327;47.238;-2.304;2023-03-14T09:53:20;55.50;91.60
10558;DHT22;5327;47.238;-2.304;2023-03-14T09:55:50;56.70;92.50
10558;DHT22;5327;47.238;-2.304;2023-03-14T09:58:26;53.00;51.10
10558;DHT22;5327;47.238;-2.304;2023-03-14T10:00:55;50.30;36.00
10558;DHT22;5327;47.238;-2.304;2023-03-14T10:03:23;49.00;43.30
10558;DHT22;5327;47.238;-2.304;2023-03-14T10:05:50;49.90;80.90
10558;DHT22;5327;47.238;-2.304;2023-03-14T10:08:16;50.30;86.10
10558;DHT22;5327;47.238;-2.304;2023-03-14T10:10:41;51.80;88.40
10558;DHT22;5327;47.238;-2.304;2023-03-14T10:13:26;53.60;83.00
10558;DHT22;5327;47.238;-2.304;2023-03-14T10:15:54;55.30;70.30
10558;DHT22;5327;47.238;-2.304;2023-03-14T10:18:20;55.50;52.20
10558;DHT22;5327;47.238;-2.304;2023-03-14T10:20:48;55.70;43.30
10558;DHT22;5327;47.238;-2.304;2023-03-14T10:25:46;55.40;34.40
10558;DHT22;5327;47.238;-2.304;2023-03-14T10:28:24;52.10;20.60
10558;DHT22;5327;47.238;-2.304;2023-03-14T10:30:50;54.10;24.70
10558;DHT22;5327;47.238;-2.304;2023-03-14T10:36:14;52.90;50.40
10558;DHT22;5327;47.238;-2.304;2023-03-14T10:43:44;46.00;1.00
10558;DHT22;5327;47.238;-2.304;2023-03-14T10:46:15;46.40;23.30
10558;DHT22;5327;47.238;-2.304;2023-03-14T10:48:43;47.90;37.50
10558;DHT22;5327;47.238;-2.304;2023-03-14T10:53:48;48.80;27.80
10558;DHT22;5327;47.238;-2.304;2023-03-14T10:56:18;49.10;29.70
10558;DHT22;5327;47.238;-2.304;2023-03-14T10:58:46;49.60;30.60
10558;DHT22;5327;47.238;-2.304;2023-03-14T11:01:54;50.60;39.20
10558;DHT22;5327;47.238;-2.304;2023-03-14T11:07:14;48.00;21.50
10558;DHT22;5327;47.238;-2.304;2023-03-14T11:10:01;47.50;19.60
10558;DHT22;5327;47.238;-2.304;2023-03-14T11:15:10;45.50;43.20
10558;DHT22;5327;47.238;-2.304;2023-03-14T11:21:02;42.20;98.20
10558;DHT22;5327;47.238;-2.304;2023-03-14T11:23:53;41.30;99.90
10558;DHT22;5327;47.238;-2.304;2023-03-14T11:29:32;40.60;99.90
10558;DHT22;5327;47.238;-2.304;2023-03-14T11:32:08;40.70;99.90
10558;DHT22;5327;47.238;-2.304;2023-03-14T11:34:44;40.80;99.90
10558;DHT22;5327;47.238;-2.304;2023-03-14T11:39:51;40.90;99.90
10558;DHT22;5327;47.238;-2.304;2023-03-14T11:42:19;41.00;99.90
10558;DHT22;5327;47.238;-2.304;2023-03-14T11:44:48;41.00;99.90
10558;DHT22;5327;47.238;-2.304;2023-03-14T11:47:22;41.00;99.90
10558;DHT22;5327;47.238;-2.304;2023-03-14T11:52:34;40.80;99.90
10558;DHT22;5327;47.238;-2.304;2023-03-14T11:57:45;40.50;99.90
10558;DHT22;5327;47.238;-2.304;2023-03-14T12:00:17;40.80;99.90
10558;DHT22;5327;47.238;-2.304;2023-03-14T12:08:58;40.70;99.90
10558;DHT22;5327;47.238;-2.304;2023-03-14T12:14:02;40.50;99.90
10558;DHT22;5327;47.238;-2.304;2023-03-14T12:16:34;40.40;99.90
10558;DHT22;5327;47.238;-2.304;2023-03-14T12:19:27;40.00;99.90
10558;DHT22;5327;47.238;-2.304;2023-03-14T12:24:46;39.80;1.00
10558;DHT22;5327;47.238;-2.304;2023-03-14T12:27:37;39.50;1.00
10558;DHT22;5327;47.238;-2.304;2023-03-14T12:30:00;39.40;1.00
10558;DHT22;5327;47.238;-2.304;2023-03-14T12:32:26;39.10;1.00
10558;DHT22;5327;47.238;-2.304;2023-03-14T12:34:52;38.80;1.00
10558;DHT22;5327;47.238;-2.304;2023-03-14T12:42:55;38.90;99.90
10558;DHT22;5327;47.238;-2.304;2023-03-14T12:50:33;38.50;99.90
10558;DHT22;5327;47.238;-2.304;2023-03-14T13:00:39;38.20;99.90
10558;DHT22;5327;47.238;-2.304;2023-03-14T13:05:58;38.10;99.90
10558;DHT22;5327;47.238;-2.304;2023-03-14T13:08:44;38.10;99.90
10558;DHT22;5327;47.238;-2.304;2023-03-14T13:11:19;37.90;99.90
10558;DHT22;5327;47.238;-2.304;2023-03-14T13:13:48;37.80;99.90
10558;DHT22;5327;47.238;-2.304;2023-03-14T13:16:18;37.90;99.90
10558;DHT22;5327;47.238;-2.304;2023-03-14T13:19:02;38.10;99.90
10558;DHT22;5327;47.238;-2.304;2023-03-14T13:21:34;37.90;1.00
10558;DHT22;5327;47.238;-2.304;2023-03-14T13:24:04;37.90;1.00
10558;DHT22;5327;47.238;-2.304;2023-03-14T13:26:35;38.00;99.90
10558;DHT22;5327;47.238;-2.304;2023-03-14T13:29:22;38.10;99.90
10558;DHT22;5327;47.238;-2.304;2023-03-14T13:31:51;37.80;99.90
10558;DHT22;5327;47.238;-2.304;2023-03-14T13:36:44;37.70;99.90
10558;DHT22;5327;47.238;-2.304;2023-03-14T13:44:07;37.60;99.90
10558;DHT22;5327;47.238;-2.304;2023-03-14T13:46:35;37.90;1.00
10558;DHT22;5327;47.238;-2.304;2023-03-14T13:49:09;37.60;1.00
10558;DHT22;5327;47.238;-2.304;2023-03-14T13:54:17;37.60;1.00
10558;DHT22;5327;47.238;-2.304;2023-03-14T13:56:43;37.70;1.00
10558;DHT22;5327;47.238;-2.304;2023-03-14T14:01:48;37.90;99.90
10558;DHT22;5327;47.238;-2.304;2023-03-14T14:07:00;37.50;99.90
10558;DHT22;5327;47.238;-2.304;2023-03-14T14:12:02;37.50;99.90
10558;DHT22;5327;47.238;-2.304;2023-03-14T14:17:04;37.60;99.90
10558;DHT22;5327;47.238;-2.304;2023-03-14T14:19:33;37.40;99.90
10558;DHT22;5327;47.238;-2.304;2023-03-14T14:21:59;37.50;99.90
10558;DHT22;5327;47.238;-2.304;2023-03-14T14:24:30;37.40;23.90
10558;DHT22;5327;47.238;-2.304;2023-03-14T14:29:32;37.50;99.90
10558;DHT22;5327;47.238;-2.304;2023-03-14T14:34:46;37.60;1.00
10558;DHT22;5327;47.238;-2.304;2023-03-14T14:37:31;37.50;1.00
10558;DHT22;5327;47.238;-2.304;2023-03-14T14:39:59;37.40;72.00
10558;DHT22;5327;47.238;-2.304;2023-03-14T14:42:30;37.30;99.90
10558;DHT22;5327;47.238;-2.304;2023-03-14T14:44:57;37.40;99.90
10558;DHT22;5327;47.238;-2.304;2023-03-14T14:47:25;37.50;39.80
10558;DHT22;5327;47.238;-2.304;2023-03-14T14:49:53;37.30;1.00
